Time;durP1;ratioP1;P1;durP2;ratioP2;P2;SDS_P1;SDS_P2;PMS_P1;PMS_P2;Temp;Humidity;BMP_temperature;BMP_pressure;BME280_temperature;BME280_humidity;BME280_pressure;Samples;Min_cycle;Max_cycle;Signal;HPM_P1;HPM_P2
2021/11/06 00:01:04;;;;;;;0.10;0.10;;;;;;;11.04;63.16;102831.94;5034839;28;20033;-89
2021/11/06 00:03:30;;;;;;;0.17;0.17;;;;;;;11.00;63.75;102830.13;5039799;28;20025;-88
2021/11/06 00:05:56;;;;;;;0.10;0.10;;;;;;;10.96;63.33;102829.19;5045124;28;20484;-88
2021/11/06 00:08:23;;;;;;;0.10;0.10;;;;;;;10.97;63.52;102835.41;5039359;28;20029;-88
2021/11/06 00:10:49;;;;;;;0.10;0.10;;;;;;;10.99;63.61;102834.53;5044726;28;20037;-89
2021/11/06 00:13:17;;;;;;;0.10;0.10;;;;;;;10.88;63.74;102824.69;5041955;28;20022;-87
2021/11/06 00:15:45;;;;;;;0.10;0.10;;;;;;;10.97;63.61;102824.78;5049329;28;20170;-88
2021/11/06 00:18:12;;;;;;;0.55;0.55;;;;;;;10.93;63.96;102833.56;5048299;28;20036;-88
2021/11/06 00:20:38;;;;;;;0.63;0.63;;;;;;;10.92;63.56;102827.38;5040848;28;20036;-87
2021/11/06 00:23:04;;;;;;;0.10;0.10;;;;;;;10.89;63.71;102826.47;5036844;28;20045;-89
2021/11/06 00:25:31;;;;;;;0.10;0.10;;;;;;;10.87;64.30;102823.81;5037861;28;20128;-87
2021/11/06 00:27:57;;;;;;;0.10;0.10;;;;;;;10.93;63.60;102815.91;5045950;28;20041;-85
2021/11/06 00:30:24;;;;;;;0.10;0.10;;;;;;;10.90;64.07;102825.59;5042500;28;20104;-88
2021/11/06 00:32:50;;;;;;;0.30;0.30;;;;;;;10.85;64.18;102820.25;5046619;28;20027;-84
2021/11/06 00:35:16;;;;;;;0.10;0.10;;;;;;;10.88;64.41;102820.28;5043860;28;20047;-87
2021/11/06 00:37:44;;;;;;;0.10;0.10;;;;;;;10.89;64.10;102827.38;5038439;28;20540;-89
2021/11/06 00:40:12;;;;;;;1.75;1.65;;;;;;;10.86;63.98;102826.44;5038818;28;20044;-88
2021/11/06 00:42:39;;;;;;;0.10;0.10;;;;;;;10.92;63.90;102831.81;5036328;28;20032;-85
2021/11/06 00:45:07;;;;;;;0.10;0.10;;;;;;;10.83;64.35;102829.97;5034029;28;20096;-88
2021/11/06 00:47:34;;;;;;;0.15;0.15;;;;;;;10.87;63.96;102829.09;5038187;28;20469;-86
2021/11/06 00:50:00;;;;;;;0.10;0.10;;;;;;;10.94;63.95;102825.66;5043655;28;20035;-88
2021/11/06 00:52:27;;;;;;;0.20;0.20;;;;;;;10.89;64.10;102831.78;5053315;28;20029;-88
2021/11/06 00:54:53;;;;;;;0.10;0.10;;;;;;;10.89;64.33;102831.78;5053668;28;20024;-88
2021/11/06 00:57:19;;;;;;;0.10;0.10;;;;;;;10.87;64.78;102828.22;5053380;28;20025;-87
2021/11/06 00:59:45;;;;;;;0.10;0.10;;;;;;;10.91;64.51;102840.66;5053453;28;20033;-86
2021/11/06 01:02:12;;;;;;;0.10;0.10;;;;;;;10.86;64.03;102831.75;5053504;28;20028;-87
2021/11/06 01:04:38;;;;;;;1.10;1.10;;;;;;;10.96;63.91;102823.88;5053311;28;20045;-87
2021/11/06 01:07:05;;;;;;;0.85;0.85;;;;;;;10.93;64.35;102823.88;5053449;28;20017;-87
2021/11/06 01:09:31;;;;;;;0.63;0.63;;;;;;;10.98;63.94;102827.44;5053244;28;20491;-88
2021/11/06 01:11:57;;;;;;;4.75;1.38;;;;;;;10.94;64.53;102835.34;5053479;28;20041;-88
2021/11/06 01:14:23;;;;;;;0.10;0.10;;;;;;;10.98;64.46;102815.97;5053381;28;20052;-87
2021/11/06 01:16:49;;;;;;;0.10;0.10;;;;;;;10.95;64.15;102816.84;5053761;28;20029;-88
2021/11/06 01:19:16;;;;;;;0.40;0.40;;;;;;;10.93;64.24;102812.34;5052844;28;20104;-87
2021/11/06 01:21:42;;;;;;;0.10;0.10;;;;;;;10.98;64.37;102808.88;5053507;28;20026;-88
2021/11/06 01:24:09;;;;;;;0.15;0.15;;;;;;;10.97;64.45;102808.88;5052897;28;20025;-86
2021/11/06 01:26:35;;;;;;;0.40;0.40;;;;;;;11.00;64.42;102804.50;5053376;28;20024;-88
2021/11/06 01:29:02;;;;;;;0.20;0.20;;;;;;;11.06;63.75;102802.78;5052871;28;20493;-88
2021/11/06 01:31:29;;;;;;;0.47;0.40;;;;;;;11.10;64.07;102799.25;5053011;28;20035;-88
2021/11/06 01:33:55;;;;;;;0.20;0.20;;;;;;;11.03;63.99;102797.41;5049815;28;20027;-88
2021/11/06 01:36:22;;;;;;;0.10;0.10;;;;;;;11.00;64.00;102796.53;5053175;28;20105;-87
2021/11/06 01:38:48;;;;;;;0.35;0.35;;;;;;;11.02;64.14;102795.66;5052546;28;20033;-88
2021/11/06 01:41:14;;;;;;;0.17;0.17;;;;;;;11.06;64.28;102800.13;5051296;28;20201;-86
2021/11/06 01:43:41;;;;;;;0.10;0.10;;;;;;;11.09;63.77;102797.47;5050610;28;20025;-88
2021/11/06 01:46:09;;;;;;;0.20;0.20;;;;;;;11.15;63.88;102797.53;5053191;28;20037;-88
2021/11/06 01:48:35;;;;;;;0.13;0.13;;;;;;;11.06;63.90;102808.06;5052848;28;20472;-87
2021/11/06 01:51:03;;;;;;;0.20;0.20;;;;;;;10.99;64.00;102812.41;5053006;28;20461;-88
2021/11/06 01:53:29;;;;;;;0.10;0.10;;;;;;;11.08;64.11;102811.63;5053080;28;20029;-88
2021/11/06 01:55:58;;;;;;;0.10;0.10;;;;;;;11.00;64.19;102809.81;5052672;28;20032;-89
2021/11/06 01:58:26;;;;;;;0.25;0.25;;;;;;;11.03;63.71;102802.72;5052908;28;20043;-88
2021/11/06 02:00:52;;;;;;;0.10;0.10;;;;;;;11.07;63.60;102809.88;5052564;28;20112;-88
2021/11/06 02:03:18;;;;;;;0.10;0.10;;;;;;;11.07;63.75;102802.78;5052938;28;20057;-88
2021/11/06 02:05:45;;;;;;;0.10;0.10;;;;;;;11.06;63.89;102806.31;5052766;28;20489;-89
2021/11/06 02:08:13;;;;;;;0.10;0.10;;;;;;;11.03;63.36;102800.06;5052702;28;20472;-87
2021/11/06 02:10:41;;;;;;;1.35;1.30;;;;;;;11.12;63.59;102793.09;5052502;28;20025;-87
2021/11/06 02:13:08;;;;;;;0.15;0.15;;;;;;;11.18;63.32;102794.94;5052737;28;20028;-86
2021/11/06 02:15:34;;;;;;;0.20;0.20;;;;;;;11.18;63.31;102794.94;5052394;28;20055;-88
2021/11/06 02:18:00;;;;;;;0.10;0.10;;;;;;;11.08;63.57;102798.34;5052545;28;20044;-88
2021/11/06 02:20:27;;;;;;;1.95;0.57;;;;;;;11.10;63.15;102797.53;5044172;28;20146;-87
2021/11/06 02:22:53;;;;;;;0.10;0.10;;;;;;;11.08;63.63;102795.69;5052614;28;20483;-88
2021/11/06 02:25:22;;;;;;;0.10;0.10;;;;;;;11.09;63.70;102797.47;5052421;28;20021;-88
2021/11/06 02:27:48;;;;;;;0.10;0.10;;;;;;;11.12;63.23;102802.84;5052527;28;20037;-89
2021/11/06 02:30:16;;;;;;;0.17;0.17;;;;;;;11.06;63.90;102792.16;5052812;28;20102;-87
2021/11/06 02:32:45;;;;;;;0.10;0.10;;;;;;;11.07;63.91;102799.25;5052291;28;20028;-88
2021/11/06 02:35:12;;;;;;;0.20;0.20;;;;;;;11.12;63.63;102797.53;5052094;28;20029;-88
2021/11/06 02:37:38;;;;;;;0.10;0.10;;;;;;;11.02;63.95;102793.03;5052572;28;20314;-88
2021/11/06 02:40:06;;;;;;;0.30;0.30;;;;;;;11.08;64.09;102793.03;5050957;28;20033;-88
2021/11/06 02:42:32;;;;;;;0.20;0.20;;;;;;;11.07;63.60;102786.00;5043767;28;20078;-87
2021/11/06 02:44:59;;;;;;;0.10;0.10;;;;;;;11.06;63.75;102792.16;5051806;28;20025;-89
2021/11/06 02:47:25;;;;;;;0.10;0.10;;;;;;;11.06;64.01;102790.38;5052333;28;20025;-88
2021/11/06 02:49:51;;;;;;;0.47;0.47;;;;;;;11.09;64.06;102792.19;5052153;28;20068;-88
2021/11/06 02:52:17;;;;;;;0.10;0.10;;;;;;;10.97;63.95;102803.56;5052069;28;20040;-88
2021/11/06 02:54:43;;;;;;;0.40;0.40;;;;;;;11.06;63.95;102808.06;5051354;28;20032;-88
2021/11/06 02:57:10;;;;;;;0.08;0.08;;;;;;;10.99;63.85;102799.16;5051915;28;20100;-89
2021/11/06 02:59:37;;;;;;;0.10;0.10;;;;;;;10.94;64.29;102798.22;5051800;28;20029;-88
2021/11/06 03:02:04;;;;;;;0.30;0.30;;;;;;;11.00;63.79;102788.59;5051831;28;20175;-89
2021/11/06 03:04:37;;;;;;;0.73;0.73;;;;;;;10.99;63.91;102792.09;5052053;28;20066;-88
2021/11/06 03:07:05;;;;;;;0.30;0.30;;;;;;;11.05;64.27;102782.41;5052028;28;20159;-88
2021/11/06 03:09:37;;;;;;;0.10;0.10;;;;;;;11.04;64.30;102784.19;5051891;28;20029;-88
2021/11/06 03:12:06;;;;;;;1.27;1.27;;;;;;;11.07;64.06;102781.56;5051808;28;20036;-88
2021/11/06 03:14:35;;;;;;;0.30;0.30;;;;;;;11.00;64.59;102787.69;5051629;28;20075;-88
2021/11/06 03:17:01;;;;;;;0.10;0.10;;;;;;;10.97;64.82;102777.06;5051250;28;20033;-88
2021/11/06 03:19:27;;;;;;;0.40;0.40;;;;;;;11.05;64.78;102780.66;5051619;28;20542;-88
2021/11/06 03:21:53;;;;;;;0.10;0.10;;;;;;;10.99;64.52;102792.09;5051832;28;20434;-88
2021/11/06 03:24:20;;;;;;;0.10;0.10;;;;;;;11.06;64.53;102789.50;5049375;28;20108;-87
2021/11/06 03:26:46;;;;;;;0.20;0.20;;;;;;;11.05;64.70;102790.38;5051862;28;20059;-88
2021/11/06 03:29:12;;;;;;;0.30;0.30;;;;;;;11.02;64.40;102790.38;5051534;28;20116;-87
2021/11/06 03:31:38;;;;;;;0.20;0.20;;;;;;;11.00;64.97;102788.59;5051796;28;20096;-88
2021/11/06 03:34:04;;;;;;;0.40;0.40;;;;;;;11.00;64.79;102785.94;5051617;28;20091;-88
2021/11/06 03:36:31;;;;;;;0.10;0.10;;;;;;;11.03;64.85;102778.84;5051703;28;20040;-88
2021/11/06 03:38:57;;;;;;;0.00;0.00;;;;;;;11.10;64.69;102783.34;5051220;28;20052;-88
2021/11/06 03:41:23;;;;;;;2.67;0.75;;;;;;;11.05;65.05;102782.41;5051583;28;20063;-88
2021/11/06 03:43:50;;;;;;;0.10;0.10;;;;;;;11.03;64.98;102778.84;5051790;28;20432;-88
2021/11/06 03:46:16;;;;;;;0.10;0.10;;;;;;;10.97;65.43;102783.22;5051313;28;20051;-88
2021/11/06 03:48:42;;;;;;;0.10;0.10;;;;;;;10.95;65.67;102785.00;5051618;28;20033;-88
2021/11/06 03:51:08;;;;;;;1.00;0.90;;;;;;;11.05;65.28;102785.06;5051279;28;20052;-87
2021/11/06 03:53:35;;;;;;;0.10;0.10;;;;;;;11.03;65.31;102777.09;5051651;28;20468;-88
2021/11/06 03:56:02;;;;;;;0.10;0.10;;;;;;;11.18;64.77;102779.00;5051303;28;20036;-88
2021/11/06 03:58:29;;;;;;;0.95;0.95;;;;;;;11.26;64.48;102781.72;5051262;28;20035;-88
2021/11/06 04:00:55;;;;;;;1.08;1.08;;;;;;;11.14;64.89;102777.19;5046344;28;20033;-88
2021/11/06 04:03:21;;;;;;;0.43;0.40;;;;;;;11.18;65.46;102768.41;5051691;28;20033;-88
2021/11/06 04:05:48;;;;;;;0.20;0.20;;;;;;;11.16;65.29;102772.78;5051356;28;20087;-88
2021/11/06 04:08:14;;;;;;;0.20;0.20;;;;;;;11.16;65.41;102767.47;5053871;28;20029;-88
2021/11/06 04:10:40;;;;;;;0.70;0.52;;;;;;;11.21;65.29;102768.41;5055035;28;20383;-87
2021/11/06 04:13:06;;;;;;;0.70;0.70;;;;;;;11.25;65.54;102774.63;5054825;28;20046;-87
2021/11/06 04:15:33;;;;;;;0.65;0.63;;;;;;;11.27;65.61;102765.81;5054929;28;20037;-88
2021/11/06 04:18:00;;;;;;;0.43;0.43;;;;;;;11.29;65.50;102757.84;5054668;28;20021;-87
2021/11/06 04:20:26;;;;;;;1.00;0.70;;;;;;;11.30;65.17;102760.53;5054097;28;20029;-88
2021/11/06 04:22:52;;;;;;;0.68;0.68;;;;;;;11.24;65.36;102771.09;5046901;28;20384;-88
2021/11/06 04:25:19;;;;;;;0.10;0.10;;;;;;;11.30;65.50;102771.16;5054683;28;20021;-88
2021/11/06 04:27:46;;;;;;;0.10;0.10;;;;;;;11.34;65.37;102764.09;5054928;28;20025;-88
2021/11/06 04:30:13;;;;;;;0.05;0.05;;;;;;;11.38;65.27;102765.91;5054460;28;20029;-89
2021/11/06 04:32:39;;;;;;;0.10;0.10;;;;;;;11.32;65.74;102780.00;5054474;28;20043;-88
2021/11/06 04:35:06;;;;;;;0.28;0.28;;;;;;;11.34;65.58;102766.75;5054227;28;20040;-88
2021/11/06 04:37:32;;;;;;;0.10;0.10;;;;;;;11.42;65.17;102777.44;5050767;28;20610;-88
2021/11/06 04:39:58;;;;;;;0.10;0.10;;;;;;;11.47;65.27;102773.91;5040542;28;20483;-89
2021/11/06 04:42:25;;;;;;;0.20;0.20;;;;;;;11.50;64.92;102781.00;5047895;28;20078;-88
2021/11/06 04:44:51;;;;;;;0.85;0.75;;;;;;;11.50;65.42;102778.34;5043893;28;20030;-88
2021/11/06 04:47:17;;;;;;;0.10;0.10;;;;;;;11.52;65.20;102781.91;5043658;28;20546;-88
2021/11/06 04:49:43;;;;;;;1.17;1.17;;;;;;;11.45;65.59;102772.13;5047554;28;20065;-88
2021/11/06 04:52:10;;;;;;;2.55;1.48;;;;;;;11.45;65.76;102774.78;5034799;28;20033;-88
2021/11/06 04:54:36;;;;;;;0.25;0.25;;;;;;;11.47;65.74;102765.06;5037378;28;20036;-88
2021/11/06 04:57:02;;;;;;;0.10;0.10;;;;;;;11.48;65.96;102764.19;5044685;28;20101;-88
2021/11/06 04:59:28;;;;;;;0.10;0.10;;;;;;;11.47;66.01;102767.72;5035394;28;20506;-88
2021/11/06 05:01:55;;;;;;;0.30;0.30;;;;;;;11.57;65.61;102766.91;5036291;28;20021;-87
2021/11/06 05:04:22;;;;;;;0.10;0.10;;;;;;;11.48;65.58;102766.84;5043852;28;20060;-88
2021/11/06 05:06:49;;;;;;;0.10;0.10;;;;;;;11.55;66.01;102754.50;5043352;28;20042;-86
2021/11/06 05:09:15;;;;;;;1.83;1.73;;;;;;;11.51;65.86;102761.56;5039633;28;20108;-86
2021/11/06 05:11:42;;;;;;;0.10;0.10;;;;;;;11.55;66.08;102762.47;5043957;28;20044;-87
2021/11/06 05:14:08;;;;;;;0.30;0.30;;;;;;;11.52;65.82;102747.41;5052110;28;20104;-86
2021/11/06 05:16:35;;;;;;;0.10;0.10;;;;;;;11.53;65.85;102757.16;5050299;28;20472;-87
2021/11/06 05:19:01;;;;;;;0.10;0.10;;;;;;;11.43;66.19;102755.31;5052271;28;20384;-88
2021/11/06 05:21:35;;;;;;;1.17;1.17;;;;;;;11.44;65.96;102757.97;5049937;28;20033;-87
2021/11/06 05:24:03;;;;;;;0.65;0.65;;;;;;;11.43;66.19;102755.31;5048352;28;20029;-88
2021/11/06 05:26:30;;;;;;;0.20;0.20;;;;;;;11.55;65.54;102751.84;5052460;28;20029;-83
2021/11/06 05:28:56;;;;;;;0.10;0.10;;;;;;;11.51;65.65;102758.91;5053411;28;20380;-88
2021/11/06 05:31:23;;;;;;;0.30;0.30;;;;;;;11.53;65.66;102757.16;5053220;28;20060;-87
2021/11/06 05:33:49;;;;;;;0.10;0.10;;;;;;;11.61;65.86;102751.88;5053379;28;20094;-87
2021/11/06 05:36:15;;;;;;;0.30;0.30;;;;;;;11.53;66.26;102757.16;5053508;28;20036;-87
2021/11/06 05:38:41;;;;;;;0.68;0.68;;;;;;;11.46;65.94;102752.66;5053426;28;20036;-87
2021/11/06 05:41:07;;;;;;;0.22;0.22;;;;;;;11.49;66.12;102760.69;5053256;28;20040;-87
2021/11/06 05:43:33;;;;;;;0.10;0.10;;;;;;;11.53;65.94;102762.47;5053025;28;20099;-87
2021/11/06 05:45:59;;;;;;;0.30;0.30;;;;;;;11.59;65.82;102762.50;5053119;28;20036;-87
2021/11/06 05:48:26;;;;;;;0.32;0.32;;;;;;;11.52;66.30;102754.50;5053015;28;20480;-87
2021/11/06 05:50:52;;;;;;;0.13;0.13;;;;;;;11.62;65.81;102753.66;5052833;28;20052;-87
2021/11/06 05:53:18;;;;;;;0.35;0.35;;;;;;;11.58;66.11;102760.72;5052959;28;20494;-87
2021/11/06 05:55:44;;;;;;;1.88;0.93;;;;;;;11.55;66.04;102760.72;5052814;28;20033;-86
2021/11/06 05:58:10;;;;;;;0.75;0.75;;;;;;;11.62;65.81;102751.88;5052959;28;20081;-88
2021/11/06 06:00:36;;;;;;;0.40;0.40;;;;;;;11.62;65.64;102751.88;5052813;28;20033;-87
2021/11/06 06:03:03;;;;;;;0.13;0.13;;;;;;;11.62;66.06;102762.50;5052685;28;20040;-88
2021/11/06 06:05:29;;;;;;;1.48;1.38;;;;;;;11.63;66.00;102753.66;5053218;28;20171;-87
2021/11/06 06:07:55;;;;;;;0.10;0.10;;;;;;;11.72;66.18;102759.94;5052433;28;20060;-87
2021/11/06 06:10:21;;;;;;;0.10;0.10;;;;;;;11.69;65.86;102754.59;5052976;28;20025;-88
2021/11/06 06:12:51;;;;;;;0.52;0.52;;;;;;;11.73;65.71;102759.06;5052290;28;20404;-87
2021/11/06 06:15:18;;;;;;;1.85;1.75;;;;;;;11.67;66.26;102753.72;5052576;28;20037;-87
2021/11/06 06:17:44;;;;;;;0.10;0.10;;;;;;;11.65;65.86;102754.59;5052373;28;20103;-88
2021/11/06 06:20:11;;;;;;;0.17;0.17;;;;;;;11.58;66.71;102752.75;5052605;28;20108;-88
2021/11/06 06:22:38;;;;;;;0.30;0.30;;;;;;;11.61;66.21;102747.47;5052253;28;20033;-87
2021/11/06 06:25:05;;;;;;;0.10;0.10;;;;;;;11.61;66.73;102744.84;5052698;28;20033;-87
2021/11/06 06:27:32;;;;;;;0.15;0.15;;;;;;;11.68;66.29;102744.88;5052195;28;20029;-86
2021/11/06 06:29:58;;;;;;;1.85;1.05;;;;;;;11.67;66.52;102743.97;5051705;28;20025;-87
2021/11/06 06:32:24;;;;;;;0.10;0.10;;;;;;;11.73;66.07;102741.34;5052148;28;20025;-87
2021/11/06 06:34:50;;;;;;;0.13;0.13;;;;;;;11.73;66.50;102743.13;5052714;28;20040;-88
2021/11/06 06:37:17;;;;;;;1.15;1.15;;;;;;;11.74;66.22;102744.88;5052232;28;20118;-87
2021/11/06 06:39:43;;;;;;;0.10;0.10;;;;;;;11.72;66.00;102751.97;5038986;28;20037;-88
2021/11/06 06:42:09;;;;;;;0.10;0.10;;;;;;;11.65;66.29;102754.59;5052401;28;20353;-88
2021/11/06 06:44:36;;;;;;;0.50;0.43;;;;;;;11.71;65.93;102755.50;5052700;28;20472;-82
2021/11/06 06:47:02;;;;;;;0.30;0.30;;;;;;;11.73;65.97;102759.06;5052317;28;20119;-88
2021/11/06 06:49:29;;;;;;;0.22;0.22;;;;;;;11.67;65.94;102753.72;5052278;28;20056;-86
2021/11/06 06:51:55;;;;;;;2.75;2.53;;;;;;;11.69;66.09;102759.91;5051888;28;20127;-87
2021/11/06 06:54:23;;;;;;;0.10;0.10;;;;;;;11.78;66.12;102752.88;5052084;28;20025;-86
2021/11/06 06:56:50;;;;;;;0.13;0.13;;;;;;;11.78;66.07;102752.00;5051997;28;20087;-87
2021/11/06 06:59:16;;;;;;;0.25;0.25;;;;;;;11.70;66.22;102748.41;5051745;28;20029;-87
2021/11/06 07:01:42;;;;;;;0.20;0.20;;;;;;;11.76;66.28;102753.75;5039435;28;20049;-88
2021/11/06 07:04:08;;;;;;;0.10;0.10;;;;;;;11.65;66.07;102749.28;5051427;28;20036;-88
2021/11/06 07:06:37;;;;;;;0.10;0.10;;;;;;;11.62;66.00;102749.22;5052068;28;20029;-86
2021/11/06 07:09:03;;;;;;;0.10;0.10;;;;;;;11.64;65.94;102746.63;5051387;28;20037;-86
2021/11/06 07:11:30;;;;;;;0.10;0.10;;;;;;;11.61;66.17;102751.88;5051500;28;20037;-87
2021/11/06 07:13:56;;;;;;;1.55;1.45;;;;;;;11.58;66.05;102750.09;5044900;28;20390;-88
2021/11/06 07:16:23;;;;;;;3.83;2.50;;;;;;;11.56;66.07;102750.97;5051737;28;20028;-87
2021/11/06 07:18:49;;;;;;;0.20;0.20;;;;;;;11.48;66.25;102750.94;5051564;28;20108;-87
2021/11/06 07:21:15;;;;;;;0.10;0.10;;;;;;;11.45;66.36;102759.75;5051569;28;20489;-87
2021/11/06 07:23:42;;;;;;;1.00;1.00;;;;;;;11.43;66.40;102755.31;5051339;28;20025;-88
2021/11/06 07:26:08;;;;;;;1.45;0.82;;;;;;;11.37;66.46;102764.13;5051275;28;20029;-87
2021/11/06 07:28:34;;;;;;;0.00;0.00;;;;;;;11.37;66.57;102766.78;5051458;28;20071;-87
2021/11/06 07:31:00;;;;;;;0.38;0.38;;;;;;;11.46;66.93;102771.25;5050867;28;20447;-83
2021/11/06 07:33:26;;;;;;;1.20;0.80;;;;;;;11.51;66.55;102766.88;5051361;28;20115;-86
2021/11/06 07:35:52;;;;;;;0.05;0.05;;;;;;;11.55;66.76;102766.03;5047407;28;20029;-87
2021/11/06 07:38:19;;;;;;;0.52;0.52;;;;;;;11.55;66.86;102766.03;5051289;28;20033;-87
2021/11/06 07:40:46;;;;;;;0.10;0.10;;;;;;;11.61;66.79;102763.41;5050956;28;20033;-87
2021/11/06 07:43:12;;;;;;;0.30;0.30;;;;;;;11.69;66.49;102768.75;5061861;28;20083;-87
2021/11/06 07:45:41;;;;;;;1.38;1.02;;;;;;;11.68;66.18;102766.97;5054675;28;20029;-85
2021/11/06 07:48:07;;;;;;;0.40;0.40;;;;;;;11.72;66.23;102758.16;5049285;28;20083;-87
2021/11/06 07:50:33;;;;;;;0.10;0.10;;;;;;;11.78;65.93;102762.63;5051991;28;20049;-86
2021/11/06 07:52:59;;;;;;;0.32;0.32;;;;;;;11.82;66.08;102759.09;5055368;28;20033;-87
2021/11/06 07:55:26;;;;;;;0.10;0.10;;;;;;;11.91;65.48;102760.91;5054824;28;20460;-88
2021/11/06 07:57:52;;;;;;;0.17;0.17;;;;;;;11.84;65.61;102765.31;5055175;28;20044;-88
2021/11/06 08:00:19;;;;;;;0.10;0.10;;;;;;;11.91;65.62;102759.16;5055152;28;20060;-89
2021/11/06 08:02:46;;;;;;;1.55;1.45;;;;;;;11.93;65.31;102751.19;5054935;28;20057;-86
2021/11/06 08:05:14;;;;;;;0.10;0.10;;;;;;;11.95;65.18;102747.66;5055499;28;20035;-88
2021/11/06 08:07:41;;;;;;;1.75;0.57;;;;;;;11.98;65.29;102750.34;5054828;28;20021;-87
2021/11/06 08:10:09;;;;;;;0.98;0.98;;;;;;;12.08;64.78;102750.41;5054998;28;20464;-87
2021/11/06 08:12:38;;;;;;;0.10;0.10;;;;;;;12.06;64.58;102749.50;5054951;28;20094;-86
2021/11/06 08:15:06;;;;;;;1.55;1.08;;;;;;;12.03;65.03;102752.16;5053984;28;20065;-86
2021/11/06 08:17:33;;;;;;;0.10;0.10;;;;;;;12.06;65.12;102752.16;5052325;28;20112;-85
2021/11/06 08:19:59;;;;;;;0.47;0.47;;;;;;;12.03;64.77;102746.84;5054492;28;20055;-85
2021/11/06 08:22:26;;;;;;;0.43;0.43;;;;;;;12.07;64.98;102745.97;5054509;28;20025;-85
2021/11/06 08:24:52;;;;;;;0.22;0.22;;;;;;;11.95;65.08;102750.31;5053960;28;20039;-86
2021/11/06 08:27:18;;;;;;;0.25;0.25;;;;;;;12.01;64.65;102746.81;5054744;28;20434;-86
2021/11/06 08:29:44;;;;;;;0.10;0.10;;;;;;;12.10;65.13;102745.97;5053805;28;20112;-83
2021/11/06 08:32:10;;;;;;;0.10;0.10;;;;;;;12.23;64.87;102747.81;5054843;28;20064;-88
2021/11/06 08:34:36;;;;;;;1.08;0.47;;;;;;;12.22;64.55;102743.34;5053693;28;20040;-86
2021/11/06 08:37:03;;;;;;;0.10;0.10;;;;;;;12.32;64.72;102733.66;5053183;28;20032;-86
2021/11/06 08:39:29;;;;;;;0.38;0.38;;;;;;;12.32;64.16;102744.28;5053819;28;20040;-87
2021/11/06 08:41:56;;;;;;;3.13;1.85;;;;;;;12.43;64.11;102745.19;5053462;28;20032;-83
2021/11/06 08:44:23;;;;;;;0.82;0.82;;;;;;;12.48;64.16;102747.88;5053138;28;20029;-86
2021/11/06 08:46:52;;;;;;;0.10;0.10;;;;;;;12.47;64.00;102748.75;5053454;28;20506;-85
2021/11/06 08:49:19;;;;;;;0.10;0.10;;;;;;;12.48;63.87;102745.22;5053874;28;20462;-79
2021/11/06 08:51:47;;;;;;;1.00;0.90;;;;;;;12.58;63.57;102754.97;5054095;28;20025;-85
2021/11/06 08:54:14;;;;;;;0.80;0.47;;;;;;;12.55;63.41;102752.34;5053623;28;20025;-86
2021/11/06 08:56:42;;;;;;;0.10;0.10;;;;;;;12.71;63.67;102755.00;5053551;28;20112;-87
2021/11/06 08:59:09;;;;;;;0.10;0.10;;;;;;;12.75;62.94;102754.16;5053073;28;20459;-87
2021/11/06 09:01:35;;;;;;;0.10;0.10;;;;;;;12.84;63.37;102743.50;5052567;28;20064;-87
2021/11/06 09:04:01;;;;;;;0.45;0.45;;;;;;;12.80;63.11;102733.75;5052278;28;20025;-87
2021/11/06 09:06:28;;;;;;;0.10;0.10;;;;;;;12.83;62.83;102744.41;5053179;28;20032;-87
2021/11/06 09:08:54;;;;;;;0.20;0.20;;;;;;;12.95;62.65;102741.75;5047205;28;20496;-85
2021/11/06 09:11:20;;;;;;;0.10;0.10;;;;;;;12.95;62.99;102736.41;5051837;28;20049;-88
2021/11/06 09:13:53;;;;;;;0.10;0.10;;;;;;;13.02;63.02;102732.00;5051964;28;20033;-82
2021/11/06 09:16:20;;;;;;;0.10;0.10;;;;;;;13.03;62.27;102743.53;5052224;28;20024;-88
2021/11/06 09:18:46;;;;;;;0.45;0.45;;;;;;;13.20;62.85;102725.78;5052612;28;20060;-88
2021/11/06 09:21:14;;;;;;;0.68;0.68;;;;;;;13.21;62.36;102724.91;5052732;28;20092;-89
2021/11/06 09:23:41;;;;;;;0.13;0.13;;;;;;;13.20;62.23;102719.56;5052726;28;20467;-88
2021/11/06 09:26:11;;;;;;;0.10;0.10;;;;;;;13.21;62.32;102722.22;5053317;28;20052;-86
2021/11/06 09:28:40;;;;;;;0.32;0.32;;;;;;;13.19;62.20;102715.13;5053529;28;20079;-87
2021/11/06 09:31:11;;;;;;;0.10;0.10;;;;;;;13.29;61.74;102708.91;5052938;28;20032;-82
2021/11/06 09:33:39;;;;;;;0.10;0.10;;;;;;;13.37;61.83;102711.53;5052955;28;20020;-84
2021/11/06 09:36:05;;;;;;;0.10;0.10;;;;;;;13.39;61.75;102720.47;5051640;28;20464;-85
2021/11/06 09:38:32;;;;;;;0.47;0.47;;;;;;;13.46;61.13;102711.59;5052733;28;20067;-85
2021/11/06 09:41:01;;;;;;;0.40;0.40;;;;;;;13.52;61.06;102716.91;5052236;28;20033;-85
2021/11/06 09:43:27;;;;;;;0.00;0.00;;;;;;;13.40;61.28;102717.78;5052804;28;20500;-84
2021/11/06 09:45:57;;;;;;;0.10;0.10;;;;;;;13.40;61.21;102722.25;5051652;28;20044;-83
2021/11/06 09:48:24;;;;;;;0.10;0.10;;;;;;;13.46;61.10;102719.56;5051936;28;20556;-85
2021/11/06 09:50:51;;;;;;;0.80;0.80;;;;;;;13.36;61.21;102715.13;5051577;28;20041;-84
2021/11/06 09:53:18;;;;;;;0.10;0.10;;;;;;;13.35;61.14;102724.88;5050449;28;20040;-84
2021/11/06 09:55:45;;;;;;;1.75;1.65;;;;;;;13.38;60.67;102724.00;5052070;28;20392;-84
2021/11/06 09:58:11;;;;;;;0.20;0.20;;;;;;;13.32;60.41;102714.25;5052379;28;20031;-84
2021/11/06 10:00:38;;;;;;;0.10;0.10;;;;;;;13.34;60.54;102716.91;5052047;28;20407;-85
2021/11/06 10:03:04;;;;;;;0.10;0.10;;;;;;;13.29;60.92;102714.22;5052115;28;20383;-84
2021/11/06 10:05:52;;;;;;;0.10;0.10;;;;;;;13.45;60.57;102715.13;5050891;28;20031;-84
2021/11/06 10:08:23;;;;;;;0.22;0.22;;;;;;;13.31;60.99;102712.47;5047420;28;20025;-84
2021/11/06 10:10:53;;;;;;;0.50;0.50;;;;;;;13.30;60.73;102709.81;5052350;28;20040;-85
2021/11/06 10:13:20;;;;;;;0.05;0.05;;;;;;;13.24;61.17;102716.00;5052186;28;20033;-84
2021/11/06 10:15:52;;;;;;;0.75;0.75;;;;;;;13.38;61.11;102713.38;5051778;28;20036;-81
2021/11/06 10:18:23;;;;;;;0.30;0.30;;;;;;;13.44;60.59;102713.34;5051161;28;20029;-84
2021/11/06 10:20:59;;;;;;;0.10;0.10;;;;;;;13.61;60.56;102704.44;5050156;28;20043;-83
2021/11/06 10:23:31;;;;;;;0.30;0.30;;;;;;;13.66;60.30;102708.00;5051033;28;20051;-84
2021/11/06 10:26:16;;;;;;;1.23;1.05;;;;;;;13.65;60.40;102698.22;5050597;28;20033;-84
2021/11/06 10:28:43;;;;;;;0.10;0.10;;;;;;;13.63;60.23;102703.53;5049329;28;20032;-83
2021/11/06 10:31:10;;;;;;;0.45;0.45;;;;;;;13.58;60.71;102706.22;5050735;28;20100;-83
2021/11/06 10:33:47;;;;;;;0.10;0.10;;;;;;;13.70;60.17;102699.09;5050420;28;20541;-84
2021/11/06 10:36:22;;;;;;;0.35;0.35;;;;;;;13.59;60.60;102702.69;5050356;28;20442;-84
2021/11/06 10:41:44;;;;;;;0.98;0.95;;;;;;;13.56;60.46;102693.81;5070691;27;20463;-84
2021/11/06 10:44:15;;;;;;;0.22;0.22;;;;;;;13.72;59.70;102689.28;5068257;28;20036;-85
2021/11/06 10:46:50;;;;;;;0.10;0.10;;;;;;;13.81;60.08;102697.28;5065509;28;20411;-85
2021/11/06 10:52:19;;;;;;;0.30;0.30;;;;;;;14.07;59.43;102699.81;5069288;28;20405;-85
2021/11/06 10:55:06;;;;;;;0.10;0.10;;;;;;;14.18;59.02;102697.09;5059443;28;20488;-84
2021/11/06 10:57:34;;;;;;;0.20;0.20;;;;;;;14.29;59.01;102686.34;5049102;28;20055;-80
2021/11/06 11:00:11;;;;;;;0.20;0.20;;;;;;;14.38;58.98;102688.06;5045874;28;20049;-83
2021/11/06 11:02:38;;;;;;;2.08;0.50;;;;;;;14.26;59.07;102689.06;5036693;28;20440;-85
2021/11/06 11:05:05;;;;;;;0.30;0.30;;;;;;;14.39;58.98;102679.19;5036885;28;20037;-84
2021/11/06 11:07:32;;;;;;;0.40;0.40;;;;;;;14.27;59.09;102673.94;5033486;28;20030;-84
2021/11/06 11:10:00;;;;;;;0.10;0.10;;;;;;;14.33;58.84;102669.47;5031122;28;20025;-84
2021/11/06 11:12:26;;;;;;;0.43;0.43;;;;;;;14.42;58.96;102673.84;5033456;28;20029;-83
2021/11/06 11:14:54;;;;;;;0.10;0.10;;;;;;;14.32;59.06;102661.47;5032621;28;20428;-84
2021/11/06 11:17:40;;;;;;;0.43;0.43;;;;;;;14.38;58.93;102666.75;5040570;28;20022;-83
2021/11/06 11:20:24;;;;;;;0.47;0.47;;;;;;;14.38;58.99;102656.06;5038372;28;20049;-82
2021/11/06 11:25:50;;;;;;;0.10;0.10;;;;;;;14.40;59.36;102652.53;5115906;27;20743;-83
2021/11/06 11:28:17;;;;;;;1.55;1.45;;;;;;;14.34;59.28;102638.34;5104808;28;20040;-84
2021/11/06 11:30:43;;;;;;;1.00;1.00;;;;;;;14.37;59.19;102646.34;5089973;28;20033;-83
2021/11/06 11:33:10;;;;;;;1.30;1.20;;;;;;;14.43;59.35;102642.72;5093749;28;20478;-84